createdAt,value
2018-12-30T00:00:42.485Z,3.30
2018-12-30T00:03:11.375Z,3.30
2018-12-30T00:05:40.146Z,4.20
2018-12-30T00:08:08.624Z,3.27
2018-12-30T00:10:37.114Z,3.30
2018-12-30T00:13:05.635Z,3.53
2018-12-30T00:15:34.459Z,3.50
2018-12-30T00:18:03.294Z,3.43
2018-12-30T00:20:31.740Z,3.60
2018-12-30T00:23:00.212Z,3.13
2018-12-30T00:25:28.647Z,3.37
2018-12-30T00:27:57.167Z,4.17
2018-12-30T00:30:25.763Z,3.50
2018-12-30T00:32:54.228Z,3.77
2018-12-30T00:35:22.751Z,4.03
2018-12-30T00:37:51.249Z,4.00
2018-12-30T00:40:20.087Z,3.60
2018-12-30T00:42:48.584Z,3.90
2018-12-30T00:45:17.067Z,3.40
2018-12-30T00:47:45.513Z,3.40
2018-12-30T00:50:14.044Z,3.73
2018-12-30T00:52:42.559Z,3.47
2018-12-30T00:55:11.335Z,3.90
2018-12-30T00:57:39.787Z,4.00
2018-12-30T01:00:08.718Z,3.83
2018-12-30T01:02:37.319Z,3.93
2018-12-30T01:05:05.939Z,3.87
2018-12-30T01:07:34.617Z,3.77
2018-12-30T01:10:03.309Z,4.13
2018-12-30T01:12:31.752Z,3.73
2018-12-30T01:15:00.287Z,4.37
2018-12-30T01:17:28.723Z,3.90
2018-12-30T01:19:57.188Z,4.20
2018-12-30T01:22:25.775Z,3.43
2018-12-30T01:24:54.206Z,4.17
2018-12-30T01:27:22.732Z,3.60
2018-12-30T01:29:51.254Z,3.83
2018-12-30T01:32:19.774Z,4.27
2018-12-30T01:34:48.272Z,4.10
2018-12-30T01:37:16.905Z,4.20
2018-12-30T01:39:45.408Z,3.83
2018-12-30T01:42:13.957Z,4.17
2018-12-30T01:44:42.524Z,3.60
2018-12-30T01:47:11.054Z,4.33
2018-12-30T01:49:39.494Z,3.70
2018-12-30T01:52:08.051Z,3.27
2018-12-30T01:54:36.548Z,3.57
2018-12-30T01:57:05.074Z,4.10
2018-12-30T01:59:33.507Z,4.03
2018-12-30T02:02:02.012Z,3.70
2018-12-30T02:04:30.554Z,3.70
2018-12-30T02:06:59.067Z,4.10
2018-12-30T02:09:27.509Z,4.37
2018-12-30T02:11:56.032Z,4.53
2018-12-30T02:14:24.552Z,4.27
2018-12-30T02:16:53.265Z,4.17
2018-12-30T02:19:21.724Z,3.70
2018-12-30T02:21:50.159Z,3.97
2018-12-30T02:24:18.607Z,4.50
2018-12-30T02:26:47.118Z,3.80
2018-12-30T02:29:15.963Z,4.03
2018-12-30T02:31:44.380Z,4.10
2018-12-30T02:34:12.929Z,4.10
2018-12-30T02:36:41.360Z,3.80
2018-12-30T02:39:09.875Z,3.97
2018-12-30T02:41:38.303Z,3.80
2018-12-30T02:44:06.753Z,4.57
2018-12-30T02:46:35.260Z,4.43
2018-12-30T02:49:03.786Z,4.20
2018-12-30T02:51:32.253Z,4.13
2018-12-30T02:54:00.784Z,3.93
2018-12-30T02:56:29.307Z,3.90
2018-12-30T02:58:57.740Z,3.83
2018-12-30T03:01:26.208Z,3.90
2018-12-30T03:03:54.629Z,4.10
2018-12-30T03:06:23.096Z,4.07
2018-12-30T03:08:51.515Z,4.00
2018-12-30T03:11:19.967Z,3.93
2018-12-30T03:13:48.391Z,3.63
2018-12-30T03:16:16.900Z,3.70
2018-12-30T03:18:45.315Z,3.83
2018-12-30T03:21:13.764Z,3.17
2018-12-30T03:23:42.194Z,4.20
2018-12-30T03:26:10.675Z,3.83
2018-12-30T03:28:39.140Z,3.83
2018-12-30T03:31:07.595Z,3.87
2018-12-30T03:33:36.020Z,3.70
2018-12-30T03:36:04.449Z,3.50
2018-12-30T03:38:32.890Z,4.00
2018-12-30T03:41:01.418Z,3.97
2018-12-30T03:43:29.849Z,3.57
2018-12-30T03:45:58.311Z,4.00
2018-12-30T03:48:26.821Z,3.73
2018-12-30T03:50:55.325Z,4.10
2018-12-30T03:53:23.772Z,4.03
2018-12-30T03:55:53.731Z,3.93
2018-12-30T03:58:22.190Z,3.90
2018-12-30T04:00:50.616Z,4.37
2018-12-30T04:03:19.083Z,4.37
2018-12-30T04:05:47.503Z,3.67
2018-12-30T04:08:15.967Z,3.57
2018-12-30T04:10:44.443Z,3.47
2018-12-30T04:13:12.877Z,3.77
2018-12-30T04:15:41.347Z,3.67
2018-12-30T04:18:09.797Z,4.57
2018-12-30T04:20:38.222Z,4.03
2018-12-30T04:23:06.679Z,3.63
2018-12-30T04:25:35.104Z,3.83
2018-12-30T04:28:03.532Z,3.57
2018-12-30T04:30:32.001Z,3.97
2018-12-30T04:33:00.420Z,4.37
2018-12-30T04:35:28.881Z,3.47
2018-12-30T04:37:57.306Z,3.83
2018-12-30T04:40:25.786Z,3.60
2018-12-30T04:42:54.198Z,4.07
2018-12-30T04:45:22.647Z,3.83
2018-12-30T04:47:51.696Z,3.97
2018-12-30T04:50:20.132Z,4.30
2018-12-30T04:52:48.799Z,3.40
2018-12-30T04:55:17.394Z,3.70
2018-12-30T04:57:45.804Z,3.97
2018-12-30T05:00:14.258Z,4.00
2018-12-30T05:02:42.683Z,4.20
2018-12-30T05:05:11.118Z,3.70
2018-12-30T05:07:39.563Z,3.90
2018-12-30T05:10:08.131Z,3.50
2018-12-30T05:12:36.665Z,3.90
2018-12-30T05:15:05.935Z,3.53
2018-12-30T05:17:34.426Z,4.00
2018-12-30T05:20:02.929Z,4.03
2018-12-30T05:22:33.992Z,3.73
2018-12-30T05:25:01.525Z,3.70
2018-12-30T05:27:30.004Z,3.43
2018-12-30T05:29:58.428Z,4.47
2018-12-30T05:32:26.903Z,4.07
2018-12-30T05:34:55.333Z,4.00
2018-12-30T05:37:23.777Z,3.73
2018-12-30T05:39:52.219Z,4.23
2018-12-30T05:42:20.652Z,3.80
2018-12-30T05:44:49.091Z,3.87
2018-12-30T05:47:17.517Z,4.27
2018-12-30T05:49:45.994Z,5.00
2018-12-30T05:52:14.487Z,3.80
2018-12-30T05:54:42.947Z,3.70
2018-12-30T05:57:11.447Z,3.53
2018-12-30T05:59:39.892Z,3.30
2018-12-30T06:02:08.314Z,3.90
2018-12-30T06:04:36.759Z,3.70
2018-12-30T06:07:05.182Z,3.07
2018-12-30T06:09:33.622Z,4.17
2018-12-30T06:12:02.067Z,3.63
2018-12-30T06:14:31.043Z,3.87
2018-12-30T06:16:59.468Z,3.63
2018-12-30T06:19:27.928Z,4.07
2018-12-30T06:21:56.345Z,3.70
2018-12-30T06:24:24.831Z,3.43
2018-12-30T06:26:53.316Z,3.90
2018-12-30T06:29:21.808Z,3.73
2018-12-30T06:31:50.271Z,3.80
2018-12-30T06:34:18.722Z,3.77
2018-12-30T06:36:47.169Z,4.23
2018-12-30T06:39:15.587Z,4.30
2018-12-30T06:41:44.031Z,3.90
2018-12-30T06:44:12.455Z,4.33
2018-12-30T06:46:40.915Z,4.40
2018-12-30T06:49:10.622Z,3.90
2018-12-30T06:51:39.168Z,4.00
2018-12-30T06:54:07.600Z,3.73
2018-12-30T06:56:36.043Z,4.33
2018-12-30T06:59:04.467Z,3.57
2018-12-30T07:01:32.936Z,3.73
2018-12-30T07:04:01.439Z,3.47
2018-12-30T07:06:29.887Z,3.40
2018-12-30T07:08:58.312Z,3.93
2018-12-30T07:11:26.760Z,3.60
2018-12-30T07:13:55.181Z,3.70
2018-12-30T07:16:23.637Z,3.97
2018-12-30T07:18:52.089Z,3.40
2018-12-30T07:21:20.511Z,3.73
2018-12-30T07:23:48.959Z,3.50
2018-12-30T07:26:17.378Z,3.57
2018-12-30T07:28:45.840Z,3.60
2018-12-30T07:31:14.259Z,3.70
2018-12-30T07:33:42.703Z,4.57
2018-12-30T07:36:11.124Z,4.10
2018-12-30T07:38:39.589Z,4.13
2018-12-30T07:41:08.004Z,4.23
2018-12-30T07:43:36.598Z,4.20
2018-12-30T07:46:05.072Z,3.70
2018-12-30T07:48:33.524Z,3.70
2018-12-30T07:51:02.011Z,3.73
2018-12-30T07:53:30.502Z,4.47
2018-12-30T07:55:58.925Z,3.40
2018-12-30T07:58:27.385Z,3.00
2018-12-30T08:00:55.830Z,3.30
2018-12-30T08:03:24.278Z,4.67
2018-12-30T08:05:52.703Z,4.00
2018-12-30T08:08:21.153Z,4.13
2018-12-30T08:10:49.576Z,3.57
2018-12-30T08:13:18.059Z,3.33
2018-12-30T08:15:46.533Z,3.20
2018-12-30T08:18:14.951Z,3.77
2018-12-30T08:20:43.447Z,3.20
2018-12-30T08:23:11.872Z,3.23
2018-12-30T08:25:40.323Z,3.10
2018-12-30T08:28:08.759Z,3.17
2018-12-30T08:30:37.376Z,3.23
2018-12-30T08:33:05.808Z,3.57
2018-12-30T08:35:34.924Z,3.73
2018-12-30T08:38:03.427Z,3.37
2018-12-30T08:40:31.843Z,2.87
2018-12-30T08:43:00.296Z,3.13
2018-12-30T08:45:28.812Z,2.97
2018-12-30T08:47:57.299Z,2.90
2018-12-30T08:50:25.759Z,3.50
2018-12-30T08:52:54.176Z,3.30
2018-12-30T08:55:22.716Z,3.90
2018-12-30T08:57:51.178Z,3.03
2018-12-30T09:00:19.295Z,3.43
2018-12-30T09:02:47.743Z,3.20
2018-12-30T09:05:15.939Z,3.30
2018-12-30T09:07:44.418Z,3.27
2018-12-30T09:10:12.668Z,3.20
2018-12-30T09:12:40.791Z,2.77
2018-12-30T09:15:08.876Z,2.93
2018-12-30T09:17:37.325Z,3.90
2018-12-30T09:20:05.836Z,3.20
2018-12-30T09:22:34.281Z,3.30
2018-12-30T09:25:02.711Z,4.10
2018-12-30T09:27:30.842Z,3.63
2018-12-30T09:29:59.274Z,2.90
2018-12-30T09:32:27.727Z,3.70
2018-12-30T09:34:56.172Z,2.97
2018-12-30T09:37:24.729Z,2.90
2018-12-30T09:39:53.167Z,3.03
2018-12-30T09:42:21.271Z,3.10
2018-12-30T09:44:49.720Z,3.57
2018-12-30T09:47:18.172Z,3.07
2018-12-30T09:49:46.388Z,3.07
2018-12-30T09:52:14.798Z,3.00
2018-12-30T09:54:43.280Z,3.30
2018-12-30T09:57:11.699Z,2.87
2018-12-30T09:59:40.151Z,2.83
2018-12-30T10:02:09.079Z,3.67
2018-12-30T10:04:37.583Z,3.47
2018-12-30T10:07:06.052Z,20.53
2018-12-30T10:09:34.471Z,4.37
2018-12-30T10:12:02.923Z,3.53
2018-12-30T10:14:31.374Z,3.67
2018-12-30T10:16:59.521Z,4.33
2018-12-30T10:19:27.926Z,3.93
2018-12-30T10:21:56.080Z,4.00
2018-12-30T10:24:24.515Z,4.83
2018-12-30T10:26:53.062Z,4.27
2018-12-30T10:29:21.241Z,4.03
2018-12-30T10:31:49.368Z,3.17
2018-12-30T10:34:17.512Z,3.73
2018-12-30T10:36:46.023Z,3.33
2018-12-30T10:39:14.155Z,3.23
2018-12-30T10:41:42.330Z,3.83
2018-12-30T10:44:10.831Z,3.80
2018-12-30T10:46:39.290Z,6.27
2018-12-30T10:49:07.399Z,3.93
2018-12-30T10:51:35.845Z,4.77
2018-12-30T10:54:04.355Z,3.87
2018-12-30T10:56:34.491Z,3.90
2018-12-30T10:59:03.014Z,3.97
2018-12-30T11:01:31.616Z,4.43
2018-12-30T11:04:00.081Z,4.23
2018-12-30T11:06:28.539Z,4.27
2018-12-30T11:08:56.994Z,4.50
2018-12-30T11:11:25.486Z,4.60
2018-12-30T11:13:53.643Z,4.73
2018-12-30T11:16:22.066Z,5.23
2018-12-30T11:18:50.523Z,5.13
2018-12-30T11:21:18.943Z,4.90
2018-12-30T11:23:47.382Z,4.60
2018-12-30T11:26:15.503Z,5.40
2018-12-30T11:28:43.944Z,5.83
2018-12-30T11:31:13.838Z,5.00
2018-12-30T11:33:42.480Z,5.50
2018-12-30T11:36:11.263Z,6.57
2018-12-30T11:38:40.070Z,4.93
2018-12-30T11:41:08.570Z,9.57
2018-12-30T11:43:37.031Z,7.00
2018-12-30T11:46:05.585Z,4.97
2018-12-30T11:48:34.038Z,4.63
2018-12-30T11:51:02.541Z,4.97
2018-12-30T11:53:30.972Z,5.10
2018-12-30T11:55:59.412Z,4.60
2018-12-30T11:58:27.871Z,5.27
2018-12-30T12:00:56.298Z,5.10
2018-12-30T12:03:24.728Z,5.13
2018-12-30T12:05:53.176Z,5.37
2018-12-30T12:08:21.616Z,5.03
2018-12-30T12:10:50.074Z,5.50
2018-12-30T12:13:18.507Z,6.00
2018-12-30T12:15:46.976Z,5.43
2018-12-30T12:18:15.419Z,5.13
2018-12-30T12:20:43.998Z,5.07
2018-12-30T12:23:12.467Z,4.57
2018-12-30T12:25:40.911Z,4.60
2018-12-30T12:28:09.349Z,5.40
2018-12-30T12:30:37.791Z,5.00
2018-12-30T12:33:06.228Z,4.87
2018-12-30T12:35:34.690Z,4.57
2018-12-30T12:38:03.111Z,5.00
2018-12-30T12:40:31.644Z,4.60
2018-12-30T12:43:00.063Z,5.13
2018-12-30T12:45:28.505Z,4.13
2018-12-30T12:47:56.987Z,4.50
2018-12-30T12:50:25.434Z,4.23
2018-12-30T12:52:53.591Z,4.53
2018-12-30T12:55:22.146Z,4.90
2018-12-30T12:57:50.591Z,4.03
2018-12-30T13:00:19.164Z,4.37
2018-12-30T13:02:47.627Z,4.23
2018-12-30T13:05:16.073Z,4.80
2018-12-30T13:07:44.583Z,5.40
2018-12-30T13:10:13.018Z,5.23
2018-12-30T13:12:41.185Z,4.67
2018-12-30T13:15:09.722Z,4.50
2018-12-30T13:17:38.195Z,4.77
2018-12-30T13:20:06.834Z,4.70
2018-12-30T13:22:34.970Z,4.67
2018-12-30T13:25:04.456Z,4.90
2018-12-30T13:27:32.919Z,4.30
2018-12-30T13:30:01.644Z,4.43
2018-12-30T13:32:35.865Z,4.80
2018-12-30T13:35:04.859Z,5.20
2018-12-30T13:37:33.501Z,5.90
2018-12-30T13:40:01.937Z,4.60
2018-12-30T13:42:30.376Z,4.63
2018-12-30T13:44:58.839Z,5.47
2018-12-30T13:47:27.420Z,4.77
2018-12-30T13:49:55.939Z,5.60
2018-12-30T13:52:24.452Z,4.30
2018-12-30T13:54:52.911Z,4.27
2018-12-30T13:57:21.344Z,4.00
2018-12-30T13:59:49.924Z,4.90
2018-12-30T14:02:18.406Z,4.40
2018-12-30T14:04:46.861Z,5.63
2018-12-30T14:07:15.308Z,4.97
2018-12-30T14:09:43.735Z,4.50
2018-12-30T14:12:12.269Z,4.40
2018-12-30T14:14:40.804Z,4.70
2018-12-30T14:17:09.562Z,4.03
2018-12-30T14:19:38.003Z,4.00
2018-12-30T14:22:06.464Z,4.27
2018-12-30T14:24:34.895Z,4.37
2018-12-30T14:27:04.028Z,4.67
2018-12-30T14:29:32.443Z,4.67
2018-12-30T14:32:00.992Z,4.20
2018-12-30T14:34:29.696Z,4.50
2018-12-30T14:36:58.495Z,4.03
2018-12-30T14:39:27.000Z,4.30
2018-12-30T14:41:55.481Z,5.10
2018-12-30T14:44:23.923Z,4.63
2018-12-30T14:46:52.374Z,4.90
2018-12-30T14:49:20.832Z,5.07
2018-12-30T14:51:49.345Z,4.80
2018-12-30T14:54:17.867Z,6.10
2018-12-30T14:56:46.875Z,6.10
2018-12-30T14:59:15.378Z,5.17
2018-12-30T15:01:43.816Z,6.70
2018-12-30T15:04:12.241Z,8.00
2018-12-30T15:06:40.708Z,8.03
2018-12-30T15:09:09.130Z,7.47
2018-12-30T15:11:37.617Z,7.80
2018-12-30T15:14:06.104Z,8.03
2018-12-30T15:16:34.619Z,7.87
2018-12-30T15:19:03.088Z,7.70
2018-12-30T15:21:31.513Z,7.30
2018-12-30T15:24:00.036Z,6.87
2018-12-30T15:26:28.769Z,6.10
2018-12-30T15:28:57.248Z,6.50
2018-12-30T15:31:25.675Z,6.57
2018-12-30T15:33:54.142Z,6.73
2018-12-30T15:36:22.597Z,6.00
2018-12-30T15:38:51.114Z,6.27
2018-12-30T15:41:19.542Z,7.43
2018-12-30T15:43:48.009Z,6.67
2018-12-30T15:46:17.149Z,6.37
2018-12-30T15:48:45.671Z,13.17
2018-12-30T15:51:14.115Z,8.63
2018-12-30T15:53:42.575Z,16.20
2018-12-30T15:56:11.015Z,8.37
2018-12-30T15:58:39.508Z,9.33
2018-12-30T16:01:07.979Z,16.30
2018-12-30T16:03:36.424Z,12.33
2018-12-30T16:06:04.882Z,19.17
2018-12-30T16:08:33.399Z,12.40
2018-12-30T16:11:01.927Z,10.13
2018-12-30T16:13:30.382Z,14.27
2018-12-30T16:15:58.888Z,10.20
2018-12-30T16:18:27.326Z,10.80
2018-12-30T16:20:55.787Z,9.73
2018-12-30T16:23:24.299Z,7.07
2018-12-30T16:25:52.815Z,11.37
2018-12-30T16:28:21.236Z,8.10
2018-12-30T16:30:49.719Z,7.10
2018-12-30T16:33:18.167Z,15.87
2018-12-30T16:35:46.706Z,10.33
2018-12-30T16:38:15.236Z,22.07
2018-12-30T16:40:43.723Z,10.90
2018-12-30T16:43:12.156Z,9.17
2018-12-30T16:45:40.664Z,7.97
2018-12-30T16:48:09.143Z,8.90
2018-12-30T16:50:37.599Z,8.80
2018-12-30T16:53:06.148Z,9.13
2018-12-30T16:55:34.947Z,8.73
2018-12-30T16:58:03.795Z,17.70
2018-12-30T17:00:32.237Z,8.87
2018-12-30T17:03:00.714Z,9.47
2018-12-30T17:05:29.296Z,10.20
2018-12-30T17:07:57.775Z,9.17
2018-12-30T17:10:26.215Z,10.93
2018-12-30T17:12:54.706Z,10.80
2018-12-30T17:15:23.136Z,12.73
2018-12-30T17:17:51.608Z,11.60
2018-12-30T17:20:20.086Z,11.93
2018-12-30T17:22:48.585Z,13.57
2018-12-30T17:25:17.133Z,12.20
2018-12-30T17:27:45.626Z,13.20
2018-12-30T17:30:14.135Z,13.17
2018-12-30T17:32:42.592Z,12.03
2018-12-30T17:35:11.057Z,13.47
2018-12-30T17:37:39.500Z,14.77
2018-12-30T17:40:08.721Z,15.53
2018-12-30T17:42:37.287Z,15.57
2018-12-30T17:45:06.895Z,18.43
2018-12-30T17:47:35.327Z,19.57
2018-12-30T17:50:04.742Z,16.60
2018-12-30T17:52:33.196Z,17.63
2018-12-30T17:55:01.671Z,18.20
2018-12-30T17:57:30.115Z,15.27
2018-12-30T17:59:58.579Z,16.20
2018-12-30T18:02:27.508Z,16.43
2018-12-30T18:04:55.991Z,17.13
2018-12-30T18:07:24.428Z,17.33
2018-12-30T18:09:52.901Z,18.33
2018-12-30T18:12:21.419Z,18.33
2018-12-30T18:14:51.299Z,19.63
2018-12-30T18:17:19.860Z,18.23
2018-12-30T18:19:48.301Z,18.13
2018-12-30T18:22:16.775Z,17.50
2018-12-30T18:24:45.254Z,15.67
2018-12-30T18:27:13.721Z,18.20
2018-12-30T18:29:42.235Z,17.33
2018-12-30T18:32:10.704Z,18.57
2018-12-30T18:34:39.154Z,16.73
2018-12-30T18:37:07.621Z,16.83
2018-12-30T18:39:36.059Z,18.87
2018-12-30T18:42:04.592Z,17.83
2018-12-30T18:44:33.033Z,18.60
2018-12-30T18:47:01.499Z,18.40
2018-12-30T18:49:29.931Z,19.53
2018-12-30T18:51:58.395Z,18.90
2018-12-30T18:54:26.907Z,20.83
2018-12-30T18:56:55.399Z,20.43
2018-12-30T18:59:23.878Z,22.80
2018-12-30T19:01:52.380Z,18.33
2018-12-30T19:04:20.862Z,18.60
2018-12-30T19:06:49.290Z,17.73
2018-12-30T19:09:17.762Z,18.53
2018-12-30T19:11:46.251Z,18.60
2018-12-30T19:14:14.788Z,20.73
2018-12-30T19:16:43.226Z,17.83
2018-12-30T19:19:13.291Z,19.07
2018-12-30T19:21:41.872Z,21.90
2018-12-30T19:24:10.507Z,21.00
2018-12-30T19:26:38.929Z,19.77
2018-12-30T19:29:07.399Z,18.80
2018-12-30T19:31:35.838Z,18.03
2018-12-30T19:34:04.370Z,19.13
2018-12-30T19:36:32.831Z,18.40
2018-12-30T19:39:02.852Z,16.33
2018-12-30T19:41:31.337Z,16.20
2018-12-30T19:43:59.894Z,19.03
2018-12-30T19:46:28.351Z,18.43
2018-12-30T19:48:56.814Z,18.80
2018-12-30T19:51:25.348Z,19.03
2018-12-30T19:53:53.799Z,19.17
2018-12-30T19:56:22.334Z,17.47
2018-12-30T19:58:50.782Z,19.73
2018-12-30T20:01:19.282Z,20.23
2018-12-30T20:03:47.706Z,19.30
2018-12-30T20:06:16.158Z,18.60
2018-12-30T20:08:44.609Z,21.20
2018-12-30T20:11:13.071Z,18.27
2018-12-30T20:13:41.496Z,19.13
2018-12-30T20:16:09.980Z,20.50
2018-12-30T20:18:38.486Z,19.10
2018-12-30T20:21:06.911Z,19.37
2018-12-30T20:23:35.375Z,24.00
2018-12-30T20:26:03.823Z,19.50
2018-12-30T20:28:32.303Z,19.50
2018-12-30T20:31:00.739Z,23.37
2018-12-30T20:33:29.210Z,24.17
2018-12-30T20:35:57.635Z,19.73
2018-12-30T20:38:26.140Z,21.87
2018-12-30T20:40:54.631Z,21.00
2018-12-30T20:43:23.226Z,18.83
2018-12-30T20:45:51.732Z,20.00
2018-12-30T20:48:20.304Z,21.10
2018-12-30T20:50:48.882Z,22.20
2018-12-30T20:53:17.388Z,25.60
2018-12-30T20:55:45.825Z,25.77
2018-12-30T20:58:14.287Z,23.20
2018-12-30T21:00:42.699Z,21.27
2018-12-30T21:03:11.163Z,22.13
2018-12-30T21:05:39.615Z,21.97
2018-12-30T21:08:08.080Z,21.67
2018-12-30T21:10:36.697Z,21.77
2018-12-30T21:13:05.323Z,20.27
2018-12-30T21:15:33.834Z,23.67
2018-12-30T21:18:02.292Z,22.37
2018-12-30T21:20:30.804Z,21.73
2018-12-30T21:22:59.299Z,20.43
2018-12-30T21:25:27.770Z,21.03
2018-12-30T21:27:56.239Z,24.57
2018-12-30T21:30:24.829Z,25.20
2018-12-30T21:32:53.268Z,26.30
2018-12-30T21:35:21.787Z,22.97
2018-12-30T21:37:50.356Z,21.20
2018-12-30T21:40:18.899Z,19.87
2018-12-30T21:42:47.424Z,22.23
2018-12-30T21:45:15.915Z,21.53
2018-12-30T21:47:45.939Z,22.47
2018-12-30T21:50:14.716Z,24.07
2018-12-30T21:52:43.238Z,23.73
2018-12-30T21:55:11.721Z,23.73
2018-12-30T21:57:40.138Z,20.07
2018-12-30T22:00:09.436Z,22.83
2018-12-30T22:02:37.871Z,20.67
2018-12-30T22:05:06.478Z,22.20
2018-12-30T22:07:34.941Z,22.53
2018-12-30T22:10:04.236Z,22.33
2018-12-30T22:12:32.813Z,26.77
2018-12-30T22:15:01.823Z,20.23
2018-12-30T22:17:31.332Z,24.17
2018-12-30T22:19:59.895Z,22.87
2018-12-30T22:22:28.569Z,20.53
2018-12-30T22:24:57.137Z,19.53
2018-12-30T22:27:25.600Z,19.13
2018-12-30T22:29:54.064Z,18.30
2018-12-30T22:32:22.650Z,20.20
2018-12-30T22:34:51.139Z,18.20
2018-12-30T22:37:19.602Z,23.87
2018-12-30T22:39:48.020Z,18.33
2018-12-30T22:42:16.545Z,18.10
2018-12-30T22:44:45.057Z,17.10
2018-12-30T22:47:13.523Z,18.77
2018-12-30T22:49:41.952Z,18.30
2018-12-30T22:52:10.409Z,23.33
2018-12-30T22:54:38.836Z,21.50
2018-12-30T22:57:07.277Z,19.57
2018-12-30T22:59:35.758Z,19.53
2018-12-30T23:02:04.272Z,21.87
2018-12-30T23:04:32.731Z,18.43
2018-12-30T23:07:01.227Z,19.30
2018-12-30T23:09:29.683Z,20.90
2018-12-30T23:11:58.135Z,19.53
2018-12-30T23:14:26.566Z,16.73
2018-12-30T23:16:55.039Z,17.47
2018-12-30T23:19:23.478Z,20.03
2018-12-30T23:21:51.941Z,20.23
2018-12-30T23:24:20.503Z,21.37
2018-12-30T23:26:48.951Z,19.47
2018-12-30T23:29:17.482Z,20.20
2018-12-30T23:31:45.938Z,17.93
2018-12-30T23:34:14.387Z,21.23
2018-12-30T23:36:42.814Z,17.80
2018-12-30T23:39:11.290Z,17.70
2018-12-30T23:41:39.819Z,19.43
2018-12-30T23:44:09.361Z,18.60
2018-12-30T23:46:37.917Z,16.90
2018-12-30T23:49:06.360Z,19.33
2018-12-30T23:51:34.820Z,16.77
2018-12-30T23:54:03.288Z,21.27
2018-12-30T23:56:31.883Z,17.93
2018-12-30T23:59:00.341Z,20.07
